25 de junho de 2022

Hora Código Clima Temp. Visibilidade Tecto Vento METAR/SPECI
3:30 da manhã
V
54 °F 6¼ mi+ - Var 000° 0 kt METAR LFSL 250130Z AUTO 00000KT CAVOK 12/12 Q1014
3:00 da manhã
V
55 °F 6¼ mi+ - Var 000° 0 kt METAR LFSL 250100Z AUTO 00000KT CAVOK 13/12 Q1014
2:30 da manhã
V
55 °F 6¼ mi+ - Var 000° 0 kt METAR LFSL 250030Z AUTO 00000KT CAVOK 13/12 Q1015
2:00 da manhã
V
55 °F 6¼ mi+ - Var Var 1 kt METAR LFSL 250000Z AUTO VRB01KT CAVOK 13/12 Q1015
1:30 da manhã
V
55 °F 6¼ mi+ - 130° 130° 1 kt METAR LFSL 242330Z AUTO 13001KT CAVOK 13/12 Q1015
1:00 da manhã
V
55 °F 6¼ mi+ - Var 000° 0 kt METAR LFSL 242300Z AUTO 00000KT CAVOK 13/13 Q1015
12:30 da manhã
V
57 °F 6¼ mi+ - Var 000° 0 kt METAR LFSL 242230Z AUTO 00000KT CAVOK 14/13 Q1015
12:00 da manhã
V
57 °F 6¼ mi+ - Var Var 2 kt METAR LFSL 242200Z AUTO VRB02KT CAVOK 14/13 Q1015

24 de junho de 2022

Hora Código Clima Temp. Visibilidade Tecto Vento METAR/SPECI
11:30 da tarde
V
59 °F 6¼ mi+ - Var Var 2 kt METAR LFSL 242130Z AUTO VRB02KT CAVOK 15/14 Q1015
11:00 da tarde
V
59 °F 6¼ mi+ - Var 000° 0 kt METAR LFSL 242100Z AUTO 00000KT CAVOK 15/14 Q1015
10:30 da tarde
V
61 °F 6¼ mi+ - Var 000° 0 kt METAR LFSL 242030Z AUTO 00000KT CAVOK 16/14 Q1015
10:00 da tarde
V
63 °F 6¼ mi+ - Var 000° 0 kt METAR LFSL 242000Z AUTO 00000KT CAVOK 17/15 Q1014 NOSIG
9:30 da tarde
V
66 °F 6¼ mi+ - 200° 200° 2 kt METAR LFSL 241930Z AUTO 20002KT 9999 FEW047 19/15 Q1014 NOSIG
9:00 da tarde
V
68 °F 6¼ mi+ - Var Var 2 kt METAR LFSL 241900Z AUTO VRB02KT 9999 FEW048 20/14 Q1014 NOSIG
8:30 da tarde
V
70 °F 6¼ mi+ - Var Var 2 kt METAR LFSL 241830Z AUTO VRB02KT CAVOK 21/14 Q1014 NOSIG
8:00 da tarde
V
70 °F 6¼ mi+ - 260° 260° 5 kt METAR LFSL 241800Z AUTO 26005KT 190V320 CAVOK 21/14 Q1014 NOSIG
7:30 da tarde
V
70 °F 6¼ mi+ - 290° 290° 6 kt METAR LFSL 241730Z AUTO 29006KT 220V320 CAVOK 21/14 Q1014 NOSIG
7:00 da tarde
V
70 °F 6¼ mi+ 7.600 ft 280° 280° 5 kt METAR LFSL 241700Z AUTO 28005KT 200V320 9999 FEW033 BKN076 OVC098 21/14 Q1014 NOSIG
6:30 da tarde
V
70 °F 6¼ mi+ - 270° 270° 4 kt METAR LFSL 241630Z AUTO 27004KT 190V330 9999 FEW039/// SCT100/// ///CB 21/14 Q1014 BECMG NSC
6:00 da tarde
V
73 °F 6¼ mi+ 8.000 ft Var Var 4 kt METAR LFSL 241600Z AUTO VRB04KT 9999 FEW035 SCT070 BKN080 23/14 Q1014 TEMPO FEW030CB BKN035
5:30 da tarde
V
72 °F 6¼ mi+ 6.400 ft 240° 240° 4 kt METAR LFSL 241530Z AUTO 24004KT 150V310 9999 FEW038 BKN064 OVC100 22/14 Q1014 TEMPO FEW030CB BKN035
5:00 da tarde
V
73 °F 6¼ mi+ 9.600 ft 260° 260° 6 kt METAR LFSL 241500Z AUTO 26006KT 200V310 9999 FEW038/// BKN096/// //////TCU 23/14 Q1014 TEMPO FEW030CB BKN035
4:30 da tarde
V
70 °F 6¼ mi+ 4.700 ft Var Var 5 kt METAR LFSL 241430Z AUTO VRB05KT 9999 FEW037/// BKN047/// BKN060/// ///TCU 21/15 Q1014 TEMPO BKN020 FEW030CB
4:00 da tarde
V
72 °F 6¼ mi+ 9.800 ft 250° 250° 7 kt METAR LFSL 241400Z AUTO 25007KT 180V320 9999 FEW033/// SCT041/// BKN098/// ///TCU 22/14 Q1014 TEMPO BKN020 FEW030CB
3:30 da tarde
V
73 °F 6¼ mi+ - Var Var 6 kt METAR LFSL 241330Z AUTO VRB06KT 9999 SCT034 SCT096 23/14 Q1014 TEMPO BKN020 FEW030CB
3:00 da tarde
V
73 °F 6¼ mi+ - 250° 250° 6 kt METAR LFSL 241300Z AUTO 25006KT 190V320 9999 FEW031/// //////CB 23/15 Q1014 NOSIG
2:30 da tarde
V
70 °F 6¼ mi+ 9.400 ft 220° 220° 7 kt METAR LFSL 241230Z AUTO 22007KT 160V310 9999 SCT028/// SCT040/// BKN094/// ///CB 21/15 Q1014 NOSIG
2:00 da tarde
V
68 °F 6¼ mi+ 8.800 ft 230° 230° 5 kt METAR LFSL 241200Z AUTO 23005KT 160V320 9999 FEW025/// BKN088/// //////CB 20/15 Q1014 NOSIG
1:30 da tarde
M
68 °F 6¼ mi+ 2.100 ft 220° 220° 5 kt METAR LFSL 241130Z AUTO 22005KT 160V300 9999 BKN021/// BKN034/// BKN045/// //////CB 20/15 Q1014 TEMPO BKN012 FEW030CB
1:00 da tarde
V
66 °F 6¼ mi+ - Var Var 5 kt METAR LFSL 241100Z AUTO VRB05KT 9999 FEW028/// SCT088/// ///CB 19/16 Q1014 TEMPO BKN012 FEW030CB
12:30 da tarde
M
64 °F 6¼ mi+ 2.900 ft 230° 230° 4 kt METAR LFSL 241030Z AUTO 23004KT 140V300 9999 SCT022/// BKN029/// BKN043/// ///CB 18/15 Q1014 TEMPO BKN012 FEW030CB
12:00 da tarde
V
68 °F 6¼ mi+ - 230° 230° 6 kt METAR LFSL 241000Z AUTO 23006KT 160V320 9999 FEW017/// SCT023/// ///TCU 20/15 Q1014 TEMPO BKN012 FEW030CB
11:30 da manhã
V
64 °F 6¼ mi+ - Var Var 5 kt METAR LFSL 240930Z AUTO VRB05KT 9999 FEW010/// SCT090/// //////CB 18/15 Q1014 TEMPO BKN012 FEW030CB
11:00 da manhã
V
63 °F 6¼ mi+ 6.000 ft 210° 210° 4 kt METAR LFSL 240900Z AUTO 21004KT 170V270 9999 FEW010/// BKN060/// BKN072/// ///CB 17/15 Q1014 TEMPO SHRA BKN006 BKN020 FEW030CB
10:30 da manhã
M
64 °F 6¼ mi+ 1.200 ft 240° 240° 3 kt METAR LFSL 240830Z AUTO 24003KT 170V310 9999 BKN012/// BKN026/// BKN054/// ///CB 18/16 Q1014 TEMPO SHRA BKN006 BKN020 FEW030CB
10:00 da manhã
M
64 °F 6¼ mi+ 1.100 ft 230° 230° 5 kt METAR LFSL 240800Z AUTO 23005KT 180V300 9999 BKN011/// BKN021/// OVC064/// ///CB 18/16 Q1014 TEMPO SHRA BKN006 BKN020 FEW030CB
9:30 da manhã
V
64 °F 6¼ mi+ 6.200 ft 200° 200° 6 kt METAR LFSL 240730Z AUTO 20006KT 160V240 9999 FEW010/// SCT047/// BKN062/// ///CB 18/16 Q1014 TEMPO SHRA BKN006 BKN020 FEW030CB
9:00 da manhã
I
63 °F 6¼ mi+ 600 ft 200° 200° 4 kt METAR LFSL 240700Z AUTO 20004KT 160V280 9999 BKN006/// BKN011/// BKN018/// //////CB 17/16 Q1014 TEMPO VRB15G25KT SHRA
8:30 da manhã
I
63 °F 6¼ mi+ 700 ft Var Var 3 kt METAR LFSL 240630Z AUTO VRB03KT 9999 BKN007 BKN013 OVC021 17/16 Q1014 TEMPO VRB15G25KT SHRA BKN006 BKN020 FEW030CB
8:00 da manhã
L
61 °F 6¼ mi+ 300 ft 190° 190° 3 kt METAR LFSL 240600Z AUTO 19003KT 150V240 9999 BKN003 OVC010 16/16 Q1013 TEMPO VRB15G25KT TSRA SCT025CB
7:30 da manhã
L
61 °F 5⅝ mi 200 ft Var Var 2 kt METAR LFSL 240530Z AUTO VRB02KT 9000 BKN002 BKN007 BKN011 16/16 Q1013 TEMPO VRB15G25KT TSRA SCT025CB
7:00 da manhã
I
61 °F 6¼ mi+ 900 ft Var Var 2 kt METAR LFSL 240500Z AUTO VRB02KT 9999 BKN009/// BKN076/// BKN086/// //////CB 16/16 Q1013 TEMPO VRB15G25KT TSRA
6:30 da manhã
I
61 °F 5 mi 700 ft Var Var 1 kt METAR LFSL 240430Z AUTO VRB01KT 8000 -RA BKN007/// BKN011/// OVC017/// ///CB 16/16 Q1013 TEMPO VRB15G25KT TSRA
6:00 da manhã
I
61 °F 6¼ mi+ 900 ft Var Var 2 kt METAR LFSL 240400Z AUTO VRB02KT 9999 -RA BKN009/// BKN015/// BKN025/// ///CB 16/16 Q1013 TEMPO VRB15G25KT TSRA
5:30 da manhã
I
61 °F 6¼ mi+ 700 ft Var Var 2 kt METAR LFSL 240330Z AUTO VRB02KT 9999 BKN007 OVC012 16/16 Q1013 TEMPO VRB15G25KT TSRA SCT025CB
5:00 da manhã
I
61 °F 6¼ mi+ 500 ft Var Var 2 kt METAR LFSL 240300Z AUTO VRB02KT 9999 OVC005 16/16 Q1013 TEMPO SHRA BKN006 FEW030CB
4:30 da manhã
I
61 °F 6¼ mi+ 600 ft Var Var 2 kt METAR LFSL 240230Z AUTO VRB02KT 9999 OVC006 16/16 Q1013
4:00 da manhã
I
61 °F 6¼ mi+ 700 ft 180° 180° 3 kt METAR LFSL 240200Z AUTO 18003KT 130V210 9999 OVC007 16/16 Q1014
3:30 da manhã
I
61 °F 6¼ mi+ 800 ft Var Var 3 kt METAR LFSL 240130Z AUTO VRB03KT 9999 OVC008 16/15 Q1013
3:00 da manhã
M
61 °F 6¼ mi+ 1.100 ft Var Var 3 kt METAR LFSL 240100Z AUTO VRB03KT 9999 BKN011 OVC150 16/15 Q1014
2:30 da manhã
V
61 °F 6¼ mi+ 15.000 ft 170° 170° 5 kt METAR LFSL 240030Z AUTO 17005KT 130V200 9999 FEW020 SCT028 OVC150 16/15 Q1014
2:00 da manhã
V
61 °F 6¼ mi+ 15.000 ft 180° 180° 3 kt METAR LFSL 240000Z AUTO 18003KT 150V220 9999 SCT023 OVC150 16/15 Q1014
1:30 da manhã
V
63 °F 6¼ mi+ - Var Var 3 kt METAR LFSL 232330Z AUTO VRB03KT CAVOK 17/16 Q1014
1:00 da manhã
V
63 °F 6¼ mi+ - 180° 180° 6 kt METAR LFSL 232300Z AUTO 18006KT CAVOK 17/16 Q1014
12:30 da manhã
V
63 °F 6¼ mi+ - 200° 200° 4 kt METAR LFSL 232230Z AUTO 20004KT 170V270 CAVOK 17/16 Q1014
12:00 da manhã
V
63 °F 6¼ mi+ - 180° 180° 4 kt METAR LFSL 232200Z AUTO 18004KT 150V220 9999 -RA ///TCU 17/16 Q1014

23 de junho de 2022

Hora Código Clima Temp. Visibilidade Tecto Vento METAR/SPECI
11:30 da tarde
V
63 °F 6¼ mi+ - 160° 160° 4 kt METAR LFSL 232130Z AUTO 16004KT 120V190 9999 -RA //////TCU 17/16 Q1013
11:00 da tarde
V
64 °F 6¼ mi+ - 180° 180° 5 kt METAR LFSL 232100Z AUTO 18005KT 140V210 9999 ///TCU 18/16 Q1014
10:30 da tarde
V
66 °F 6¼ mi+ - 170° 170° 7 kt METAR LFSL 232030Z AUTO 17007KT 9999 -RA //////CB 19/17 Q1014
10:00 da tarde
V
66 °F 6¼ mi+ - 190° 190° 4 kt METAR LFSL 232000Z AUTO 19004KT 140V220 9999 RA //////CB 19/17 Q1013 TEMPO 30020KT BECMG NSW
9:30 da tarde
V
70 °F 6¼ mi+ - Var Var 3 kt METAR LFSL 231930Z AUTO VRB03KT 9999 -RA ///CB 21/16 Q1013 TEMPO 30020KT SHRA
9:00 da tarde
V
70 °F 6¼ mi+ - Var Var 2 kt METAR LFSL 231900Z AUTO VRB02KT CAVOK 21/16 Q1012 TEMPO 30020KT 2000 TSGR BKN035TCU
8:30 da tarde
V
72 °F 6¼ mi+ - 180° 180° 4 kt METAR LFSL 231830Z AUTO 18004KT CAVOK 22/16 Q1012 TEMPO 30020KT 2000 TSGR BKN035TCU
8:00 da tarde
V
73 °F 6¼ mi+ - Var Var 2 kt METAR LFSL 231800Z AUTO VRB02KT CAVOK 23/16 Q1012 TEMPO 32025G45KT 2000 TSGR BKN015 BKN030CB
7:30 da tarde
V
73 °F 6¼ mi+ - 190° 190° 4 kt METAR LFSL 231730Z AUTO 19004KT 140V240 CAVOK 23/15 Q1011 TEMPO 32025G45KT 2000 TSGR BKN015 BKN030CB
7:00 da tarde
V
72 °F 6¼ mi+ - 190° 190° 3 kt METAR LFSL 231700Z AUTO 19003KT 160V240 CAVOK 22/16 Q1011 TEMPO 32025G45KT 2000 TSGR BKN015 BKN030CB
6:30 da tarde
V
73 °F 6¼ mi+ - Var Var 3 kt METAR LFSL 231630Z AUTO VRB03KT CAVOK 23/16 Q1012 TEMPO 32025G45KT 2000 TSGR BKN015 BKN030CB
6:00 da tarde
V
73 °F 6¼ mi+ - 200° 200° 3 kt METAR LFSL 231600Z AUTO 20003KT 140V260 CAVOK 23/16 Q1012 TEMPO 32025G45KT 2000 TSGR BKN015 BKN030CB
5:30 da tarde
V
72 °F 6¼ mi+ - 190° 190° 4 kt METAR LFSL 231530Z AUTO 19004KT 160V230 CAVOK 22/16 Q1012 TEMPO 32025G45KT 2000 TSGR BKN015 BKN030CB
5:00 da tarde
V
72 °F 6¼ mi+ - 170° 170° 5 kt METAR LFSL 231500Z AUTO 17005KT 120V210 CAVOK 22/16 Q1012 TEMPO 32025G45KT 2000 TSGR BKN015 BKN030CB
4:30 da tarde
V
70 °F 6¼ mi+ - Var Var 2 kt METAR LFSL 231430Z AUTO VRB02KT CAVOK 21/16 Q1011 TEMPO 32025G45KT 2000 TSGR BKN015 BKN030CB
4:00 da tarde
V
68 °F 6¼ mi+ - 360° 360° 6 kt METAR LFSL 231400Z AUTO 36006KT 320V040 CAVOK 20/16 Q1012 TEMPO 32025G45KT 2000 TSGR BKN015 BKN030CB
3:30 da tarde
V
66 °F 6¼ mi+ - 010° 010° 8 kt METAR LFSL 231330Z AUTO 01008KT 330V030 CAVOK 19/16 Q1011 TEMPO 32025G45KT 2000 TSGR BKN015 BKN030CB
3:00 da tarde
V
63 °F 6¼ mi+ 11.000 ft 010° 010° 8 kt METAR LFSL 231300Z AUTO 01008KT 340V050 9999 FEW036/// BKN110/// ///TCU 17/16 Q1011 TEMPO 32025G45KT 2000 TSGR BKN015 BKN030CB
2:30 da tarde
V
61 °F 6¼ mi+ 9.400 ft 030° 030° 6 kt METAR LFSL 231230Z AUTO 03006KT 9999 -RA VCTS FEW049/// SCT066/// OVC094/// //////CB 16/15 Q1012 TEMPO 32025G45KT 2000 TSGR
2:00 da tarde
V
61 °F 5⅝ mi - 280° 280° 9 kt METAR LFSL 231200Z AUTO 28009KT 250V320 9000 TSRA ///CB 16/15 Q1012 TEMPO VRB15G35KT 4000 TSRA
1:30 da tarde
M
61 °F 3⅛ mi 9.400 ft 270° 270° 9 kt METAR LFSL 231130Z AUTO 27009KT 210V320 5000 TSRA BR FEW012/// SCT072/// BKN094/// //////CB 16/15 Q1012 TEMPO VRB15G35KT
1:00 da tarde
V
66 °F 6¼ mi+ 10.000 ft 170° 170° 9 - 20 kt METAR LFSL 231100Z AUTO 17009G20KT 110V210 9999 -TSRA FEW018/// SCT052/// BKN100/// ///CB 19/15 Q1011 TEMPO VRB15G35KT 4000 TSRA
12:30 da tarde
V
72 °F 6¼ mi+ - 330° 330° 7 kt METAR LFSL 231030Z AUTO 33007KT 9999 TS //////CB 22/17 Q1010 TEMPO VRB15G35KT 4000 TSRA
12:00 da tarde
V
72 °F 6¼ mi+ - 330° 330° 11 kt METAR LFSL 231000Z AUTO 33011KT CAVOK 22/16 Q1010 TEMPO SHRA BKN035TCU
11:30 da manhã
V
73 °F 6¼ mi+ - 340° 340° 9 kt METAR LFSL 230930Z AUTO 34009KT 300V360 CAVOK 23/17 Q1010 TEMPO SHRA BKN035TCU
11:00 da manhã
V
73 °F 6¼ mi+ - 320° 320° 4 kt METAR LFSL 230900Z AUTO 32004KT 280V010 CAVOK 23/18 Q1011 BECMG SCT035TCU
10:30 da manhã
V
72 °F 6¼ mi+ - 310° 310° 5 kt METAR LFSL 230830Z AUTO 31005KT 290V350 CAVOK 22/18 Q1011 BECMG SCT035TCU
10:00 da manhã
V
72 °F 6¼ mi+ - Var Var 2 kt METAR LFSL 230800Z AUTO VRB02KT CAVOK 22/16 Q1011 NOSIG
9:30 da manhã
V
72 °F 6¼ mi+ - Var Var 2 kt METAR LFSL 230730Z AUTO VRB02KT CAVOK 22/16 Q1011 NOSIG
9:00 da manhã
V
70 °F 6¼ mi+ - Var Var 1 kt METAR LFSL 230700Z AUTO VRB01KT CAVOK 21/17 Q1011 NOSIG
8:30 da manhã
V
70 °F 6¼ mi+ - Var Var 1 kt METAR LFSL 230630Z AUTO VRB01KT CAVOK 21/17 Q1011 NOSIG
8:00 da manhã
V
66 °F 6¼ mi+ - Var Var 2 kt METAR LFSL 230600Z AUTO VRB02KT CAVOK 19/16 Q1011 NOSIG
7:30 da manhã
V
61 °F 6¼ mi+ - Var 000° 0 kt METAR LFSL 230530Z AUTO 00000KT CAVOK 16/16 Q1011 NOSIG
7:00 da manhã
V
59 °F 6¼ mi+ - Var 000° 0 kt METAR LFSL 230500Z AUTO 00000KT CAVOK 15/14 Q1011 NOSIG
6:30 da manhã
V
57 °F 6¼ mi+ - Var 000° 0 kt METAR LFSL 230430Z AUTO 00000KT CAVOK 14/13 Q1011 NOSIG
6:00 da manhã
V
57 °F 6¼ mi+ - 300° 300° 1 kt METAR LFSL 230400Z AUTO 30001KT CAVOK 14/13 Q1011 TEMPO 3000 BR
5:30 da manhã
V
57 °F 6¼ mi+ - Var 000° 0 kt METAR LFSL 230330Z AUTO 00000KT CAVOK 14/14 Q1011 TEMPO 3000 BR
5:00 da manhã
V
59 °F 6¼ mi+ - Var 000° 0 kt METAR LFSL 230300Z AUTO 00000KT CAVOK 15/14 Q1012
4:30 da manhã
V
59 °F 6¼ mi+ - Var 000° 0 kt METAR LFSL 230230Z AUTO 00000KT 9999 FEW001 15/14 Q1012
4:00 da manhã
V
59 °F 6¼ mi+ - Var Var 1 kt METAR LFSL 230200Z AUTO VRB01KT CAVOK 15/15 Q1012
3:30 da manhã
V
61 °F 6¼ mi+ - Var 000° 0 kt METAR LFSL 230130Z AUTO 00000KT CAVOK 16/15 Q1012
3:00 da manhã
V
63 °F 6¼ mi+ - Var Var 2 kt METAR LFSL 230100Z AUTO VRB02KT CAVOK 17/16 Q1012
2:30 da manhã
V
63 °F 6¼ mi+ - 320° 320° 3 kt METAR LFSL 230030Z AUTO 32003KT CAVOK 17/16 Q1012
2:00 da manhã
V
64 °F 6¼ mi+ - Var Var 3 kt METAR LFSL 230000Z AUTO VRB03KT CAVOK 18/17 Q1012
1:30 da manhã
V
66 °F 6¼ mi+ - Var Var 3 kt METAR LFSL 222330Z AUTO VRB03KT CAVOK 19/17 Q1012
1:00 da manhã
V
66 °F 6¼ mi+ - 360° 360° 3 kt METAR LFSL 222300Z AUTO 36003KT 320V040 CAVOK 19/17 Q1012
12:30 da manhã
V
66 °F 6¼ mi+ - 030° 030° 8 kt METAR LFSL 222230Z AUTO 03008KT 350V050 9999 ///CB 19/17 Q1012
12:00 da manhã
V
66 °F 5 mi 8.400 ft 270° 270° 6 kt METAR LFSL 222200Z AUTO 27006KT 240V300 8000 RA FEW047/// SCT074/// BKN084/// ///CB 19/17 Q1014

22 de junho de 2022

Hora Código Clima Temp. Visibilidade Tecto Vento METAR/SPECI
11:30 da tarde
V
70 °F 6¼ mi+ - 320° 320° 6 kt METAR LFSL 222130Z AUTO 32006KT 9999 //////CB 21/15 Q1013
11:00 da tarde
V
72 °F 6¼ mi+ - 320° 320° 5 kt METAR LFSL 222100Z AUTO 32005KT CAVOK 22/15 Q1012
10:30 da tarde
V
72 °F 6¼ mi+ 15.000 ft 330° 330° 6 kt METAR LFSL 222030Z AUTO 33006KT 9999 FEW028 OVC150 22/15 Q1012
10:00 da tarde
V
72 °F 6¼ mi+ - 320° 320° 5 kt METAR LFSL 222000Z AUTO 32005KT CAVOK 22/15 Q1012 TEMPO SCT050TCU
9:30 da tarde
V
73 °F 6¼ mi+ - 320° 320° 5 kt METAR LFSL 221930Z AUTO 32005KT CAVOK 23/14 Q1012 TEMPO SCT050TCU
9:00 da tarde
V
73 °F 6¼ mi+ - 320° 320° 5 kt METAR LFSL 221900Z AUTO 32005KT 290V350 CAVOK 23/14 Q1012 TEMPO SCT050TCU
8:30 da tarde
V
75 °F 6¼ mi+ - 330° 330° 7 kt METAR LFSL 221830Z AUTO 33007KT 9999 FEW043 24/14 Q1011 TEMPO SCT050TCU
7:30 da tarde
V
79 °F 6¼ mi+ - 320° 320° 8 kt METAR LFSL 221730Z AUTO 32008KT 270V360 CAVOK 26/14 Q1010 TEMPO SCT050TCU
7:00 da tarde
V
79 °F 6¼ mi+ - 310° 310° 8 kt METAR LFSL 221700Z AUTO 31008KT 280V340 CAVOK 26/14 Q1010 TEMPO VRB15G30KT -TSRA SCT050TCU
Dados mais antigos

Baixe nosso aplicativo

Fácil acesso a todas as condições meteorológicas da aviação no seu celular e no seu tablet.
Com muitas características não disponíveis no site, como suporte offline e uma lista pessoal de aeroportos.

Nós e terceiros acompanhamos seu comportamento na internet em nosso site com cookies. Se você continuar, nós assumimos que você concorda com nossa política de cookies. Saiba mais